sensor_id;sensor_type;location;lat;lon;timestamp;P1;durP1;ratioP1;P2;durP2;ratioP2
20417;SDS011;10368;51.436;6.774;2022-08-19T00:01:54;12.45;;;6.28;;
20417;SDS011;10368;51.436;6.774;2022-08-19T00:04:22;7.25;;;6.65;;
20417;SDS011;10368;51.436;6.774;2022-08-19T00:06:51;7.78;;;6.97;;
20417;SDS011;10368;51.436;6.774;2022-08-19T00:09:19;7.30;;;6.70;;
20417;SDS011;10368;51.436;6.774;2022-08-19T00:11:46;8.95;;;6.93;;
20417;SDS011;10368;51.436;6.774;2022-08-19T00:14:16;7.93;;;6.43;;
20417;SDS011;10368;51.436;6.774;2022-08-19T00:16:44;7.03;;;6.47;;
20417;SDS011;10368;51.436;6.774;2022-08-19T00:19:11;7.45;;;6.72;;
20417;SDS011;10368;51.436;6.774;2022-08-19T00:21:39;7.40;;;6.40;;
20417;SDS011;10368;51.436;6.774;2022-08-19T00:24:10;8.48;;;6.43;;
20417;SDS011;10368;51.436;6.774;2022-08-19T00:26:38;9.75;;;7.15;;
20417;SDS011;10368;51.436;6.774;2022-08-19T00:29:06;7.20;;;6.57;;
20417;SDS011;10368;51.436;6.774;2022-08-19T00:31:34;6.53;;;6.03;;
20417;SDS011;10368;51.436;6.774;2022-08-19T00:34:01;8.15;;;6.28;;
20417;SDS011;10368;51.436;6.774;2022-08-19T00:36:29;9.18;;;6.53;;
20417;SDS011;10368;51.436;6.774;2022-08-19T00:38:58;7.07;;;6.25;;
20417;SDS011;10368;51.436;6.774;2022-08-19T00:41:25;6.95;;;6.35;;
20417;SDS011;10368;51.436;6.774;2022-08-19T00:44:36;8.02;;;6.78;;
20417;SDS011;10368;51.436;6.774;2022-08-19T00:46:46;7.65;;;6.82;;
20417;SDS011;10368;51.436;6.774;2022-08-19T00:51:53;7.55;;;6.85;;
20417;SDS011;10368;51.436;6.774;2022-08-19T00:54:22;9.18;;;7.50;;
20417;SDS011;10368;51.436;6.774;2022-08-19T00:56:56;10.40;;;7.63;;
20417;SDS011;10368;51.436;6.774;2022-08-19T00:59:23;7.90;;;7.20;;
20417;SDS011;10368;51.436;6.774;2022-08-19T01:02:11;8.13;;;7.38;;
20417;SDS011;10368;51.436;6.774;2022-08-19T01:04:38;8.02;;;7.22;;
20417;SDS011;10368;51.436;6.774;2022-08-19T01:07:05;7.40;;;6.72;;
20417;SDS011;10368;51.436;6.774;2022-08-19T01:09:32;7.82;;;7.10;;
20417;SDS011;10368;51.436;6.774;2022-08-19T01:12:00;7.90;;;7.20;;
20417;SDS011;10368;51.436;6.774;2022-08-19T01:14:28;7.88;;;7.20;;
20417;SDS011;10368;51.436;6.774;2022-08-19T01:16:56;9.30;;;7.72;;
20417;SDS011;10368;51.436;6.774;2022-08-19T01:19:27;7.95;;;6.85;;
20417;SDS011;10368;51.436;6.774;2022-08-19T01:21:58;7.75;;;6.95;;
20417;SDS011;10368;51.436;6.774;2022-08-19T01:24:39;7.93;;;7.22;;
20417;SDS011;10368;51.436;6.774;2022-08-19T01:27:15;8.48;;;6.63;;
20417;SDS011;10368;51.436;6.774;2022-08-19T01:29:43;7.38;;;6.65;;
20417;SDS011;10368;51.436;6.774;2022-08-19T01:32:12;7.75;;;7.03;;
20417;SDS011;10368;51.436;6.774;2022-08-19T01:34:59;9.25;;;7.25;;
20417;SDS011;10368;51.436;6.774;2022-08-19T01:37:27;7.65;;;6.95;;
20417;SDS011;10368;51.436;6.774;2022-08-19T01:39:56;8.18;;;7.40;;
20417;SDS011;10368;51.436;6.774;2022-08-19T01:42:24;10.13;;;7.22;;
20417;SDS011;10368;51.436;6.774;2022-08-19T01:44:55;8.07;;;7.38;;
20417;SDS011;10368;51.436;6.774;2022-08-19T01:47:23;10.95;;;7.47;;
20417;SDS011;10368;51.436;6.774;2022-08-19T01:49:50;8.77;;;7.95;;
20417;SDS011;10368;51.436;6.774;2022-08-19T01:52:17;10.07;;;6.88;;
20417;SDS011;10368;51.436;6.774;2022-08-19T01:54:44;7.70;;;7.00;;
20417;SDS011;10368;51.436;6.774;2022-08-19T01:57:12;8.65;;;7.72;;
20417;SDS011;10368;51.436;6.774;2022-08-19T01:59:40;9.18;;;8.30;;
20417;SDS011;10368;51.436;6.774;2022-08-19T02:02:08;8.63;;;7.72;;
20417;SDS011;10368;51.436;6.774;2022-08-19T02:04:35;9.05;;;8.18;;
20417;SDS011;10368;51.436;6.774;2022-08-19T02:07:06;7.70;;;7.10;;
20417;SDS011;10368;51.436;6.774;2022-08-19T02:09:34;9.68;;;8.27;;
20417;SDS011;10368;51.436;6.774;2022-08-19T02:12:02;8.38;;;7.57;;
20417;SDS011;10368;51.436;6.774;2022-08-19T02:14:30;9.70;;;8.73;;
20417;SDS011;10368;51.436;6.774;2022-08-19T02:16:57;9.00;;;8.20;;
20417;SDS011;10368;51.436;6.774;2022-08-19T02:19:24;9.80;;;8.27;;
20417;SDS011;10368;51.436;6.774;2022-08-19T02:21:51;8.55;;;7.85;;
20417;SDS011;10368;51.436;6.774;2022-08-19T02:24:18;9.35;;;8.30;;
20417;SDS011;10368;51.436;6.774;2022-08-19T02:26:46;8.70;;;7.97;;
20417;SDS011;10368;51.436;6.774;2022-08-19T02:29:13;9.60;;;8.68;;
20417;SDS011;10368;51.436;6.774;2022-08-19T02:31:39;9.02;;;8.00;;
20417;SDS011;10368;51.436;6.774;2022-08-19T02:34:06;8.90;;;7.97;;
20417;SDS011;10368;51.436;6.774;2022-08-19T02:36:33;9.18;;;8.38;;
20417;SDS011;10368;51.436;6.774;2022-08-19T02:39:00;8.98;;;8.05;;
20417;SDS011;10368;51.436;6.774;2022-08-19T02:41:29;9.45;;;8.45;;
20417;SDS011;10368;51.436;6.774;2022-08-19T02:43:59;8.82;;;8.02;;
20417;SDS011;10368;51.436;6.774;2022-08-19T02:46:47;9.68;;;8.48;;
20417;SDS011;10368;51.436;6.774;2022-08-19T02:49:18;8.88;;;8.00;;
20417;SDS011;10368;51.436;6.774;2022-08-19T02:51:48;10.18;;;9.20;;
20417;SDS011;10368;51.436;6.774;2022-08-19T02:54:15;9.20;;;8.38;;
20417;SDS011;10368;51.436;6.774;2022-08-19T02:56:43;9.35;;;8.55;;
20417;SDS011;10368;51.436;6.774;2022-08-19T02:59:10;8.85;;;8.05;;
20417;SDS011;10368;51.436;6.774;2022-08-19T03:01:39;9.82;;;9.02;;
20417;SDS011;10368;51.436;6.774;2022-08-19T03:04:09;10.02;;;8.98;;
20417;SDS011;10368;51.436;6.774;2022-08-19T03:06:44;9.63;;;8.57;;
20417;SDS011;10368;51.436;6.774;2022-08-19T03:09:12;10.52;;;9.38;;
20417;SDS011;10368;51.436;6.774;2022-08-19T03:11:40;10.18;;;9.18;;
20417;SDS011;10368;51.436;6.774;2022-08-19T03:14:07;10.10;;;9.23;;
20417;SDS011;10368;51.436;6.774;2022-08-19T03:16:42;10.23;;;9.23;;
20417;SDS011;10368;51.436;6.774;2022-08-19T03:19:12;9.20;;;8.30;;
20417;SDS011;10368;51.436;6.774;2022-08-19T03:21:40;9.90;;;8.57;;
20417;SDS011;10368;51.436;6.774;2022-08-19T03:24:11;9.77;;;8.77;;
20417;SDS011;10368;51.436;6.774;2022-08-19T03:26:39;9.20;;;8.30;;
20417;SDS011;10368;51.436;6.774;2022-08-19T03:29:08;10.15;;;8.65;;
20417;SDS011;10368;51.436;6.774;2022-08-19T03:31:39;9.40;;;8.50;;
20417;SDS011;10368;51.436;6.774;2022-08-19T03:34:25;10.27;;;9.27;;
20417;SDS011;10368;51.436;6.774;2022-08-19T03:36:54;10.80;;;9.80;;
20417;SDS011;10368;51.436;6.774;2022-08-19T03:39:22;13.07;;;10.18;;
20417;SDS011;10368;51.436;6.774;2022-08-19T03:41:51;13.05;;;11.18;;
20417;SDS011;10368;51.436;6.774;2022-08-19T03:44:42;14.57;;;10.82;;
20417;SDS011;10368;51.436;6.774;2022-08-19T03:47:10;11.68;;;10.40;;
20417;SDS011;10368;51.436;6.774;2022-08-19T03:49:42;12.85;;;10.40;;
20417;SDS011;10368;51.436;6.774;2022-08-19T03:52:10;11.52;;;10.50;;
20417;SDS011;10368;51.436;6.774;2022-08-19T03:54:37;13.38;;;8.93;;
20417;SDS011;10368;51.436;6.774;2022-08-19T03:57:05;12.30;;;10.90;;
20417;SDS011;10368;51.436;6.774;2022-08-19T03:59:33;10.80;;;9.90;;
20417;SDS011;10368;51.436;6.774;2022-08-19T04:02:03;12.68;;;11.48;;
20417;SDS011;10368;51.436;6.774;2022-08-19T04:04:36;13.52;;;12.18;;
20417;SDS011;10368;51.436;6.774;2022-08-19T04:07:05;12.38;;;11.05;;
20417;SDS011;10368;51.436;6.774;2022-08-19T04:09:33;13.57;;;12.23;;
20417;SDS011;10368;51.436;6.774;2022-08-19T04:12:03;14.73;;;10.95;;
20417;SDS011;10368;51.436;6.774;2022-08-19T04:14:31;11.50;;;10.50;;
20417;SDS011;10368;51.436;6.774;2022-08-19T04:17:00;11.27;;;9.65;;
20417;SDS011;10368;51.436;6.774;2022-08-19T04:19:29;11.68;;;10.40;;
20417;SDS011;10368;51.436;6.774;2022-08-19T04:21:57;10.52;;;9.52;;
20417;SDS011;10368;51.436;6.774;2022-08-19T04:24:25;11.50;;;10.30;;
20417;SDS011;10368;51.436;6.774;2022-08-19T04:26:52;12.27;;;11.07;;
20417;SDS011;10368;51.436;6.774;2022-08-19T04:29:23;14.13;;;9.70;;
20417;SDS011;10368;51.436;6.774;2022-08-19T04:31:52;11.85;;;10.70;;
20417;SDS011;10368;51.436;6.774;2022-08-19T04:34:20;10.98;;;9.80;;
20417;SDS011;10368;51.436;6.774;2022-08-19T04:36:53;14.57;;;12.13;;
20417;SDS011;10368;51.436;6.774;2022-08-19T04:39:22;11.77;;;10.48;;
20417;SDS011;10368;51.436;6.774;2022-08-19T04:42:10;13.68;;;12.43;;
20417;SDS011;10368;51.436;6.774;2022-08-19T04:44:56;13.95;;;10.48;;
20417;SDS011;10368;51.436;6.774;2022-08-19T04:47:25;15.23;;;11.82;;
20417;SDS011;10368;51.436;6.774;2022-08-19T04:50:12;13.43;;;11.65;;
20417;SDS011;10368;51.436;6.774;2022-08-19T04:52:40;18.52;;;10.70;;
20417;SDS011;10368;51.436;6.774;2022-08-19T04:55:12;12.93;;;11.57;;
20417;SDS011;10368;51.436;6.774;2022-08-19T04:57:39;13.57;;;12.15;;
20417;SDS011;10368;51.436;6.774;2022-08-19T05:00:10;12.18;;;10.98;;
20417;SDS011;10368;51.436;6.774;2022-08-19T05:02:38;14.20;;;12.45;;
20417;SDS011;10368;51.436;6.774;2022-08-19T05:05:05;12.75;;;11.43;;
20417;SDS011;10368;51.436;6.774;2022-08-19T05:07:34;14.27;;;12.88;;
20417;SDS011;10368;51.436;6.774;2022-08-19T05:10:02;20.02;;;13.68;;
20417;SDS011;10368;51.436;6.774;2022-08-19T05:12:30;14.85;;;12.32;;
20417;SDS011;10368;51.436;6.774;2022-08-19T05:14:58;13.55;;;12.15;;
20417;SDS011;10368;51.436;6.774;2022-08-19T05:17:25;15.50;;;13.88;;
20417;SDS011;10368;51.436;6.774;2022-08-19T05:19:58;14.50;;;13.02;;
20417;SDS011;10368;51.436;6.774;2022-08-19T05:22:45;15.32;;;13.30;;
20417;SDS011;10368;51.436;6.774;2022-08-19T05:25:14;17.25;;;15.52;;
20417;SDS011;10368;51.436;6.774;2022-08-19T05:27:44;15.65;;;14.02;;
20417;SDS011;10368;51.436;6.774;2022-08-19T05:30:12;15.50;;;13.70;;
20417;SDS011;10368;51.436;6.774;2022-08-19T05:32:40;14.05;;;12.65;;
20417;SDS011;10368;51.436;6.774;2022-08-19T05:35:07;17.90;;;13.75;;
20417;SDS011;10368;51.436;6.774;2022-08-19T05:37:36;15.57;;;13.27;;
20417;SDS011;10368;51.436;6.774;2022-08-19T05:40:06;20.73;;;13.77;;
20417;SDS011;10368;51.436;6.774;2022-08-19T05:42:34;21.90;;;14.85;;
20417;SDS011;10368;51.436;6.774;2022-08-19T05:45:02;27.45;;;15.23;;
20417;SDS011;10368;51.436;6.774;2022-08-19T05:47:30;23.17;;;17.30;;
20417;SDS011;10368;51.436;6.774;2022-08-19T05:49:58;19.30;;;17.30;;
20417;SDS011;10368;51.436;6.774;2022-08-19T05:52:25;26.45;;;19.20;;
20417;SDS011;10368;51.436;6.774;2022-08-19T05:54:55;23.98;;;20.52;;
20417;SDS011;10368;51.436;6.774;2022-08-19T05:57:23;30.42;;;24.80;;
20417;SDS011;10368;51.436;6.774;2022-08-19T05:59:50;32.65;;;25.80;;
20417;SDS011;10368;51.436;6.774;2022-08-19T06:02:27;32.88;;;24.52;;
20417;SDS011;10368;51.436;6.774;2022-08-19T06:04:57;25.70;;;22.65;;
20417;SDS011;10368;51.436;6.774;2022-08-19T06:07:24;24.08;;;20.42;;
20417;SDS011;10368;51.436;6.774;2022-08-19T06:09:51;25.77;;;20.98;;
20417;SDS011;10368;51.436;6.774;2022-08-19T06:12:29;29.63;;;22.80;;
20417;SDS011;10368;51.436;6.774;2022-08-19T06:14:59;26.40;;;22.13;;
20417;SDS011;10368;51.436;6.774;2022-08-19T06:17:30;31.35;;;25.80;;
20417;SDS011;10368;51.436;6.774;2022-08-19T06:19:58;29.90;;;26.05;;
20417;SDS011;10368;51.436;6.774;2022-08-19T06:22:26;28.88;;;25.67;;
20417;SDS011;10368;51.436;6.774;2022-08-19T06:24:54;41.33;;;31.70;;
20417;SDS011;10368;51.436;6.774;2022-08-19T06:27:21;46.40;;;34.17;;
20417;SDS011;10368;51.436;6.774;2022-08-19T06:29:49;46.38;;;34.75;;
20417;SDS011;10368;51.436;6.774;2022-08-19T06:32:20;46.70;;;35.55;;
20417;SDS011;10368;51.436;6.774;2022-08-19T06:34:47;45.95;;;34.15;;
20417;SDS011;10368;51.436;6.774;2022-08-19T06:37:15;48.90;;;36.30;;
20417;SDS011;10368;51.436;6.774;2022-08-19T06:39:43;48.38;;;36.97;;
20417;SDS011;10368;51.436;6.774;2022-08-19T06:42:11;57.22;;;39.88;;
20417;SDS011;10368;51.436;6.774;2022-08-19T06:44:43;55.40;;;39.45;;
20417;SDS011;10368;51.436;6.774;2022-08-19T06:47:15;57.28;;;42.08;;
20417;SDS011;10368;51.436;6.774;2022-08-19T06:49:56;59.10;;;41.22;;
20417;SDS011;10368;51.436;6.774;2022-08-19T06:52:31;55.90;;;41.13;;
20417;SDS011;10368;51.436;6.774;2022-08-19T06:54:59;62.38;;;44.03;;
20417;SDS011;10368;51.436;6.774;2022-08-19T06:57:31;67.78;;;44.22;;
20417;SDS011;10368;51.436;6.774;2022-08-19T06:59:59;72.10;;;43.45;;
20417;SDS011;10368;51.436;6.774;2022-08-19T07:02:27;65.68;;;44.00;;
20417;SDS011;10368;51.436;6.774;2022-08-19T07:04:54;61.25;;;41.28;;
20417;SDS011;10368;51.436;6.774;2022-08-19T07:07:24;63.58;;;45.00;;
20417;SDS011;10368;51.436;6.774;2022-08-19T07:09:51;68.82;;;45.25;;
20417;SDS011;10368;51.436;6.774;2022-08-19T07:12:28;60.90;;;44.70;;
20417;SDS011;10368;51.436;6.774;2022-08-19T07:15:00;62.83;;;43.65;;
20417;SDS011;10368;51.436;6.774;2022-08-19T07:17:28;54.22;;;38.95;;
20417;SDS011;10368;51.436;6.774;2022-08-19T07:19:56;59.90;;;41.47;;
20417;SDS011;10368;51.436;6.774;2022-08-19T07:22:30;57.85;;;40.45;;
20417;SDS011;10368;51.436;6.774;2022-08-19T07:24:58;53.55;;;39.25;;
20417;SDS011;10368;51.436;6.774;2022-08-19T07:27:26;62.25;;;42.40;;
20417;SDS011;10368;51.436;6.774;2022-08-19T07:29:53;55.55;;;40.00;;
20417;SDS011;10368;51.436;6.774;2022-08-19T07:32:25;52.47;;;38.65;;
20417;SDS011;10368;51.436;6.774;2022-08-19T07:34:53;56.72;;;39.72;;
20417;SDS011;10368;51.436;6.774;2022-08-19T07:37:22;50.90;;;37.47;;
20417;SDS011;10368;51.436;6.774;2022-08-19T07:39:53;52.17;;;36.58;;
20417;SDS011;10368;51.436;6.774;2022-08-19T07:42:21;50.95;;;35.97;;
20417;SDS011;10368;51.436;6.774;2022-08-19T07:44:48;54.35;;;38.83;;
20417;SDS011;10368;51.436;6.774;2022-08-19T07:47:16;43.53;;;33.95;;
20417;SDS011;10368;51.436;6.774;2022-08-19T07:50:07;44.83;;;32.33;;
20417;SDS011;10368;51.436;6.774;2022-08-19T07:52:36;45.72;;;33.55;;
20417;SDS011;10368;51.436;6.774;2022-08-19T07:55:06;50.88;;;35.00;;
20417;SDS011;10368;51.436;6.774;2022-08-19T07:57:53;47.38;;;31.08;;
20417;SDS011;10368;51.436;6.774;2022-08-19T08:00:21;41.67;;;32.05;;
20417;SDS011;10368;51.436;6.774;2022-08-19T08:02:50;39.58;;;30.67;;
20417;SDS011;10368;51.436;6.774;2022-08-19T08:05:20;41.92;;;29.88;;
20417;SDS011;10368;51.436;6.774;2022-08-19T08:08:14;43.42;;;31.45;;
20417;SDS011;10368;51.436;6.774;2022-08-19T08:11:00;38.50;;;29.15;;
20417;SDS011;10368;51.436;6.774;2022-08-19T08:13:32;44.15;;;30.15;;
20417;SDS011;10368;51.436;6.774;2022-08-19T08:16:04;35.08;;;29.17;;
20417;SDS011;10368;51.436;6.774;2022-08-19T08:18:35;35.88;;;26.70;;
20417;SDS011;10368;51.436;6.774;2022-08-19T08:21:07;33.53;;;24.38;;
20417;SDS011;10368;51.436;6.774;2022-08-19T08:23:35;27.33;;;22.42;;
20417;SDS011;10368;51.436;6.774;2022-08-19T08:26:04;25.38;;;21.20;;
20417;SDS011;10368;51.436;6.774;2022-08-19T08:28:32;21.83;;;18.83;;
20417;SDS011;10368;51.436;6.774;2022-08-19T08:30:59;23.73;;;19.75;;
20417;SDS011;10368;51.436;6.774;2022-08-19T08:33:28;21.58;;;19.15;;
20417;SDS011;10368;51.436;6.774;2022-08-19T08:36:06;24.98;;;19.27;;
20417;SDS011;10368;51.436;6.774;2022-08-19T08:38:34;29.17;;;20.60;;
20417;SDS011;10368;51.436;6.774;2022-08-19T08:41:15;23.00;;;20.25;;
20417;SDS011;10368;51.436;6.774;2022-08-19T08:43:46;22.65;;;18.30;;
20417;SDS011;10368;51.436;6.774;2022-08-19T08:49:00;30.52;;;20.80;;
20417;SDS011;10368;51.436;6.774;2022-08-19T08:51:36;22.88;;;20.17;;
20417;SDS011;10368;51.436;6.774;2022-08-19T08:54:10;20.55;;;17.20;;
20417;SDS011;10368;51.436;6.774;2022-08-19T08:56:39;25.60;;;20.75;;
20417;SDS011;10368;51.436;6.774;2022-08-19T08:59:49;30.38;;;20.35;;
20417;SDS011;10368;51.436;6.774;2022-08-19T09:01:58;25.95;;;20.58;;
20417;SDS011;10368;51.436;6.774;2022-08-19T09:04:26;26.08;;;21.08;;
20417;SDS011;10368;51.436;6.774;2022-08-19T09:09:45;20.02;;;16.70;;
20417;SDS011;10368;51.436;6.774;2022-08-19T09:14:53;17.67;;;15.43;;
20417;SDS011;10368;51.436;6.774;2022-08-19T09:17:24;18.27;;;16.38;;
20417;SDS011;10368;51.436;6.774;2022-08-19T09:19:58;21.90;;;17.83;;
20417;SDS011;10368;51.436;6.774;2022-08-19T09:22:36;21.58;;;19.27;;
20417;SDS011;10368;51.436;6.774;2022-08-19T09:25:04;21.55;;;19.23;;
20417;SDS011;10368;51.436;6.774;2022-08-19T09:27:32;23.65;;;21.00;;
20417;SDS011;10368;51.436;6.774;2022-08-19T09:30:09;22.95;;;20.55;;
20417;SDS011;10368;51.436;6.774;2022-08-19T09:32:38;24.05;;;21.30;;
20417;SDS011;10368;51.436;6.774;2022-08-19T09:35:08;29.50;;;24.38;;
20417;SDS011;10368;51.436;6.774;2022-08-19T09:37:37;27.38;;;23.13;;
20417;SDS011;10368;51.436;6.774;2022-08-19T09:40:05;22.63;;;19.35;;
20417;SDS011;10368;51.436;6.774;2022-08-19T09:42:34;23.25;;;20.95;;
20417;SDS011;10368;51.436;6.774;2022-08-19T09:45:02;23.63;;;20.10;;
20417;SDS011;10368;51.436;6.774;2022-08-19T09:47:36;26.55;;;23.20;;
20417;SDS011;10368;51.436;6.774;2022-08-19T09:50:06;24.98;;;22.00;;
20417;SDS011;10368;51.436;6.774;2022-08-19T09:52:35;23.30;;;20.80;;
20417;SDS011;10368;51.436;6.774;2022-08-19T09:55:07;27.38;;;20.17;;
20417;SDS011;10368;51.436;6.774;2022-08-19T09:57:35;27.58;;;24.20;;
20417;SDS011;10368;51.436;6.774;2022-08-19T10:00:03;24.30;;;21.75;;
20417;SDS011;10368;51.436;6.774;2022-08-19T10:02:32;24.73;;;22.08;;
20417;SDS011;10368;51.436;6.774;2022-08-19T10:04:59;22.98;;;20.65;;
20417;SDS011;10368;51.436;6.774;2022-08-19T10:07:52;30.92;;;22.70;;
20417;SDS011;10368;51.436;6.774;2022-08-19T10:10:22;26.88;;;22.10;;
20417;SDS011;10368;51.436;6.774;2022-08-19T10:12:50;25.40;;;21.33;;
20417;SDS011;10368;51.436;6.774;2022-08-19T10:15:17;29.13;;;21.00;;
20417;SDS011;10368;51.436;6.774;2022-08-19T10:17:54;26.08;;;22.40;;
20417;SDS011;10368;51.436;6.774;2022-08-19T10:20:24;25.15;;;22.50;;
20417;SDS011;10368;51.436;6.774;2022-08-19T10:22:51;25.08;;;21.58;;
20417;SDS011;10368;51.436;6.774;2022-08-19T10:25:18;24.42;;;21.83;;
20417;SDS011;10368;51.436;6.774;2022-08-19T10:27:46;24.92;;;19.20;;
20417;SDS011;10368;51.436;6.774;2022-08-19T10:30:16;22.00;;;17.98;;
20417;SDS011;10368;51.436;6.774;2022-08-19T10:32:45;19.80;;;16.33;;
20417;SDS011;10368;51.436;6.774;2022-08-19T10:35:13;23.20;;;19.67;;
20417;SDS011;10368;51.436;6.774;2022-08-19T10:37:47;22.08;;;18.20;;
20417;SDS011;10368;51.436;6.774;2022-08-19T10:40:23;22.75;;;19.52;;
20417;SDS011;10368;51.436;6.774;2022-08-19T10:42:50;18.58;;;16.70;;
20417;SDS011;10368;51.436;6.774;2022-08-19T10:45:18;18.63;;;16.38;;
20417;SDS011;10368;51.436;6.774;2022-08-19T10:47:49;19.17;;;16.42;;
20417;SDS011;10368;51.436;6.774;2022-08-19T10:50:16;17.92;;;16.27;;
20417;SDS011;10368;51.436;6.774;2022-08-19T10:53:04;16.67;;;15.00;;
20417;SDS011;10368;51.436;6.774;2022-08-19T10:55:34;16.63;;;15.13;;
20417;SDS011;10368;51.436;6.774;2022-08-19T10:58:21;18.30;;;13.70;;
20417;SDS011;10368;51.436;6.774;2022-08-19T11:00:52;18.67;;;15.23;;
20417;SDS011;10368;51.436;6.774;2022-08-19T11:03:20;16.23;;;14.60;;
20417;SDS011;10368;51.436;6.774;2022-08-19T11:05:56;14.90;;;13.50;;
20417;SDS011;10368;51.436;6.774;2022-08-19T11:08:23;14.20;;;12.90;;
20417;SDS011;10368;51.436;6.774;2022-08-19T11:10:54;14.68;;;13.18;;
20417;SDS011;10368;51.436;6.774;2022-08-19T11:13:23;16.35;;;13.32;;
20417;SDS011;10368;51.436;6.774;2022-08-19T11:15:58;14.00;;;12.77;;
20417;SDS011;10368;51.436;6.774;2022-08-19T11:18:32;14.55;;;11.98;;
20417;SDS011;10368;51.436;6.774;2022-08-19T11:21:14;11.05;;;9.98;;
20417;SDS011;10368;51.436;6.774;2022-08-19T11:23:43;12.35;;;11.25;;
20417;SDS011;10368;51.436;6.774;2022-08-19T11:26:11;11.30;;;10.30;;
20417;SDS011;10368;51.436;6.774;2022-08-19T11:28:38;10.93;;;10.00;;
20417;SDS011;10368;51.436;6.774;2022-08-19T11:31:10;12.38;;;11.13;;
20417;SDS011;10368;51.436;6.774;2022-08-19T11:33:37;10.82;;;9.13;;
20417;SDS011;10368;51.436;6.774;2022-08-19T11:36:05;10.35;;;9.43;;
20417;SDS011;10368;51.436;6.774;2022-08-19T11:38:33;10.30;;;9.18;;
20417;SDS011;10368;51.436;6.774;2022-08-19T11:41:03;9.85;;;8.93;;
20417;SDS011;10368;51.436;6.774;2022-08-19T11:43:30;10.25;;;9.25;;
20417;SDS011;10368;51.436;6.774;2022-08-19T11:46:06;9.35;;;8.52;;
20417;SDS011;10368;51.436;6.774;2022-08-19T11:48:34;9.18;;;8.45;;
20417;SDS011;10368;51.436;6.774;2022-08-19T11:51:03;8.68;;;7.97;;
20417;SDS011;10368;51.436;6.774;2022-08-19T11:53:32;11.73;;;9.05;;
20417;SDS011;10368;51.436;6.774;2022-08-19T11:56:01;11.23;;;10.13;;
20417;SDS011;10368;51.436;6.774;2022-08-19T11:58:28;9.10;;;8.20;;
20417;SDS011;10368;51.436;6.774;2022-08-19T12:00:56;8.50;;;7.70;;
20417;SDS011;10368;51.436;6.774;2022-08-19T12:03:23;7.97;;;6.68;;
20417;SDS011;10368;51.436;6.774;2022-08-19T12:05:50;7.22;;;6.70;;
20417;SDS011;10368;51.436;6.774;2022-08-19T12:08:18;11.10;;;7.47;;
20417;SDS011;10368;51.436;6.774;2022-08-19T12:10:46;9.25;;;7.78;;
20417;SDS011;10368;51.436;6.774;2022-08-19T12:13:13;6.45;;;5.93;;
20417;SDS011;10368;51.436;6.774;2022-08-19T12:15:45;7.00;;;6.20;;
20417;SDS011;10368;51.436;6.774;2022-08-19T12:18:13;8.40;;;7.55;;
20417;SDS011;10368;51.436;6.774;2022-08-19T12:20:40;9.25;;;8.27;;
20417;SDS011;10368;51.436;6.774;2022-08-19T12:23:08;6.95;;;6.25;;
20417;SDS011;10368;51.436;6.774;2022-08-19T12:25:36;6.55;;;6.05;;
20417;SDS011;10368;51.436;6.774;2022-08-19T12:28:03;9.35;;;6.78;;
20417;SDS011;10368;51.436;6.774;2022-08-19T12:30:30;7.10;;;6.35;;
20417;SDS011;10368;51.436;6.774;2022-08-19T12:32:58;6.53;;;5.93;;
20417;SDS011;10368;51.436;6.774;2022-08-19T12:35:25;6.82;;;6.15;;
20417;SDS011;10368;51.436;6.774;2022-08-19T12:37:52;5.55;;;5.15;;
20417;SDS011;10368;51.436;6.774;2022-08-19T12:40:22;5.90;;;5.40;;
20417;SDS011;10368;51.436;6.774;2022-08-19T12:42:51;6.45;;;5.85;;
20417;SDS011;10368;51.436;6.774;2022-08-19T12:45:18;6.47;;;5.80;;
20417;SDS011;10368;51.436;6.774;2022-08-19T12:47:47;6.10;;;5.38;;
20417;SDS011;10368;51.436;6.774;2022-08-19T12:50:20;6.68;;;6.07;;
20417;SDS011;10368;51.436;6.774;2022-08-19T12:52:47;5.63;;;5.22;;
20417;SDS011;10368;51.436;6.774;2022-08-19T12:55:15;5.20;;;4.70;;
20417;SDS011;10368;51.436;6.774;2022-08-19T12:57:44;4.53;;;4.07;;
20417;SDS011;10368;51.436;6.774;2022-08-19T13:00:14;6.82;;;4.95;;
20417;SDS011;10368;51.436;6.774;2022-08-19T13:02:43;5.60;;;5.07;;
20417;SDS011;10368;51.436;6.774;2022-08-19T13:05:12;5.28;;;4.40;;
20417;SDS011;10368;51.436;6.774;2022-08-19T13:07:40;11.60;;;3.97;;
20417;SDS011;10368;51.436;6.774;2022-08-19T13:10:10;4.78;;;4.28;;
20417;SDS011;10368;51.436;6.774;2022-08-19T13:12:38;7.40;;;4.82;;
20417;SDS011;10368;51.436;6.774;2022-08-19T13:15:07;6.18;;;5.05;;
20417;SDS011;10368;51.436;6.774;2022-08-19T13:17:36;5.53;;;4.95;;
20417;SDS011;10368;51.436;6.774;2022-08-19T13:20:04;5.47;;;5.03;;
20417;SDS011;10368;51.436;6.774;2022-08-19T13:22:34;6.20;;;5.75;;
20417;SDS011;10368;51.436;6.774;2022-08-19T13:25:03;5.85;;;5.32;;
20417;SDS011;10368;51.436;6.774;2022-08-19T13:27:31;5.72;;;4.32;;
20417;SDS011;10368;51.436;6.774;2022-08-19T13:29:59;6.72;;;5.50;;
20417;SDS011;10368;51.436;6.774;2022-08-19T13:32:45;7.60;;;5.03;;
20417;SDS011;10368;51.436;6.774;2022-08-19T13:35:31;5.80;;;5.30;;
20417;SDS011;10368;51.436;6.774;2022-08-19T13:37:58;6.03;;;5.03;;
20417;SDS011;10368;51.436;6.774;2022-08-19T13:40:26;4.78;;;4.35;;
20417;SDS011;10368;51.436;6.774;2022-08-19T13:42:55;5.40;;;5.00;;
20417;SDS011;10368;51.436;6.774;2022-08-19T13:45:23;5.25;;;4.72;;
20417;SDS011;10368;51.436;6.774;2022-08-19T13:47:51;5.75;;;5.25;;
20417;SDS011;10368;51.436;6.774;2022-08-19T13:50:26;6.78;;;5.53;;
20417;SDS011;10368;51.436;6.774;2022-08-19T13:52:54;6.30;;;5.78;;
20417;SDS011;10368;51.436;6.774;2022-08-19T13:55:22;6.30;;;5.68;;
20417;SDS011;10368;51.436;6.774;2022-08-19T13:57:51;5.93;;;5.35;;
20417;SDS011;10368;51.436;6.774;2022-08-19T14:00:22;7.95;;;5.90;;
20417;SDS011;10368;51.436;6.774;2022-08-19T14:02:51;6.68;;;6.03;;
20417;SDS011;10368;51.436;6.774;2022-08-19T14:05:18;7.63;;;6.93;;
20417;SDS011;10368;51.436;6.774;2022-08-19T14:07:46;7.38;;;6.72;;
20417;SDS011;10368;51.436;6.774;2022-08-19T14:10:14;8.13;;;5.80;;
20417;SDS011;10368;51.436;6.774;2022-08-19T14:12:42;8.00;;;7.32;;
20417;SDS011;10368;51.436;6.774;2022-08-19T14:15:09;7.63;;;6.05;;
20417;SDS011;10368;51.436;6.774;2022-08-19T14:17:38;6.32;;;5.72;;
20417;SDS011;10368;51.436;6.774;2022-08-19T14:20:06;7.38;;;6.68;;
20417;SDS011;10368;51.436;6.774;2022-08-19T14:22:43;6.18;;;5.57;;
20417;SDS011;10368;51.436;6.774;2022-08-19T14:25:12;7.65;;;6.20;;
20417;SDS011;10368;51.436;6.774;2022-08-19T14:27:40;6.15;;;5.28;;
20417;SDS011;10368;51.436;6.774;2022-08-19T14:30:12;7.45;;;6.57;;
20417;SDS011;10368;51.436;6.774;2022-08-19T14:32:40;9.57;;;6.35;;
20417;SDS011;10368;51.436;6.774;2022-08-19T14:35:09;6.03;;;5.53;;
20417;SDS011;10368;51.436;6.774;2022-08-19T14:37:39;9.50;;;5.32;;
20417;SDS011;10368;51.436;6.774;2022-08-19T14:40:11;5.55;;;5.05;;
20417;SDS011;10368;51.436;6.774;2022-08-19T14:42:39;6.32;;;4.60;;
20417;SDS011;10368;51.436;6.774;2022-08-19T14:45:07;5.32;;;4.80;;
20417;SDS011;10368;51.436;6.774;2022-08-19T14:47:34;6.45;;;5.32;;
20417;SDS011;10368;51.436;6.774;2022-08-19T14:50:08;5.00;;;4.50;;
20417;SDS011;10368;51.436;6.774;2022-08-19T14:52:43;4.80;;;4.28;;
20417;SDS011;10368;51.436;6.774;2022-08-19T14:55:11;5.47;;;4.63;;
20417;SDS011;10368;51.436;6.774;2022-08-19T14:57:39;5.90;;;4.22;;
20417;SDS011;10368;51.436;6.774;2022-08-19T15:00:07;7.25;;;4.68;;
20417;SDS011;10368;51.436;6.774;2022-08-19T15:02:39;5.30;;;3.92;;